createdAt,value
2018-05-23T00:01:37.002Z,73.10
2018-05-23T00:03:37.975Z,73.10
2018-05-23T00:05:38.954Z,72.90
2018-05-23T00:07:39.946Z,73.00
2018-05-23T00:09:40.919Z,72.90
2018-05-23T00:11:41.988Z,73.10
2018-05-23T00:13:43.478Z,73.00
2018-05-23T00:15:45.411Z,73.00
2018-05-23T00:17:46.511Z,72.90
2018-05-23T00:19:48.846Z,72.40
2018-05-23T00:21:50.047Z,72.50
2018-05-23T00:23:51.038Z,72.90
2018-05-23T00:25:52.082Z,73.00
2018-05-23T00:27:53.982Z,73.60
2018-05-23T00:29:55.183Z,74.00
2018-05-23T00:31:56.351Z,73.60
2018-05-23T00:33:57.811Z,73.40
2018-05-23T00:35:59.140Z,73.90
2018-05-23T00:38:00.340Z,73.60
2018-05-23T00:40:01.370Z,73.80
2018-05-23T00:42:02.377Z,74.20
2018-05-23T00:44:03.559Z,74.00
2018-05-23T00:46:04.554Z,74.20
2018-05-23T00:48:05.774Z,73.80
2018-05-23T00:50:06.908Z,74.00
2018-05-23T00:52:08.460Z,74.00
2018-05-23T00:54:09.836Z,73.90
2018-05-23T00:56:11.131Z,73.80
2018-05-23T00:58:12.499Z,74.70
2018-05-23T01:00:13.544Z,74.70
2018-05-23T01:02:14.787Z,74.60
2018-05-23T01:04:16.114Z,74.20
2018-05-23T01:06:17.115Z,74.30
2018-05-23T01:08:18.094Z,74.40
2018-05-23T01:10:19.071Z,74.60
2018-05-23T01:12:20.058Z,74.50
2018-05-23T01:14:21.050Z,74.10
2018-05-23T01:16:22.065Z,74.10
2018-05-23T01:18:23.048Z,74.10
2018-05-23T01:20:24.399Z,74.50
2018-05-23T01:22:25.391Z,74.50
2018-05-23T01:24:26.367Z,74.20
2018-05-23T01:26:27.370Z,74.40
2018-05-23T01:28:28.370Z,74.20
2018-05-23T01:30:29.346Z,74.40
2018-05-23T01:32:30.329Z,74.50
2018-05-23T01:34:31.310Z,75.20
2018-05-23T01:36:32.279Z,74.60
2018-05-23T01:38:33.262Z,74.50
2018-05-23T01:40:34.242Z,74.70
2018-05-23T01:42:35.598Z,74.60
2018-05-23T01:44:36.582Z,74.60
2018-05-23T01:46:37.717Z,74.50
2018-05-23T01:48:50.982Z,74.40
2018-05-23T01:50:52.333Z,74.70
2018-05-23T01:52:53.330Z,74.70
2018-05-23T01:54:54.311Z,74.90
2018-05-23T01:56:55.297Z,75.10
2018-05-23T01:58:56.270Z,74.90
2018-05-23T02:00:57.255Z,74.90
2018-05-23T02:02:58.243Z,74.90
2018-05-23T02:04:59.231Z,75.10
2018-05-23T02:07:00.214Z,75.20
2018-05-23T02:09:01.187Z,75.70
2018-05-23T02:11:02.170Z,75.40
2018-05-23T02:13:03.517Z,75.30
2018-05-23T02:15:04.882Z,75.40
2018-05-23T02:17:05.867Z,75.40
2018-05-23T02:19:06.863Z,75.50
2018-05-23T02:21:07.881Z,75.40
2018-05-23T02:23:08.857Z,75.30
2018-05-23T02:25:09.834Z,75.60
2018-05-23T02:27:11.216Z,75.90
2018-05-23T02:29:12.198Z,76.00
2018-05-23T02:31:13.185Z,75.70
2018-05-23T02:33:14.161Z,75.60
2018-05-23T02:35:15.237Z,75.60
2018-05-23T02:37:16.209Z,75.70
2018-05-23T02:39:17.206Z,75.50
2018-05-23T02:41:18.205Z,75.60
2018-05-23T02:43:19.207Z,76.00
2018-05-23T02:45:20.192Z,75.90
2018-05-23T02:47:21.630Z,75.70
2018-05-23T02:49:22.971Z,76.10
2018-05-23T02:51:24.315Z,76.10
2018-05-23T02:53:25.722Z,76.00
2018-05-23T02:55:26.687Z,76.00
2018-05-23T02:57:27.678Z,75.20
2018-05-23T02:59:28.754Z,75.40
2018-05-23T03:01:29.721Z,75.70
2018-05-23T03:03:30.735Z,75.70
2018-05-23T03:05:32.149Z,75.80
2018-05-23T03:07:33.141Z,75.80
2018-05-23T03:09:34.107Z,75.60
2018-05-23T03:11:35.158Z,75.40
2018-05-23T03:13:36.142Z,75.80
2018-05-23T03:15:37.098Z,76.00
2018-05-23T03:17:38.101Z,76.00
2018-05-23T03:19:39.433Z,75.80
2018-05-23T03:21:40.775Z,76.00
2018-05-23T03:23:42.128Z,76.10
2018-05-23T03:25:43.477Z,75.90
2018-05-23T03:27:44.830Z,75.40
2018-05-23T03:29:45.826Z,75.40
2018-05-23T03:31:46.962Z,75.20
2018-05-23T03:33:54.971Z,75.20
2018-05-23T03:35:55.938Z,74.60
2018-05-23T03:37:56.926Z,74.70
2018-05-23T03:39:57.933Z,74.90
2018-05-23T03:41:59.242Z,74.80
2018-05-23T03:44:00.614Z,74.00
2018-05-23T03:46:01.598Z,74.00
2018-05-23T03:48:02.574Z,73.80
2018-05-23T03:50:03.701Z,73.90
2018-05-23T03:52:04.674Z,74.30
2018-05-23T03:54:05.667Z,73.60
2018-05-23T03:56:06.630Z,73.50
2018-05-23T03:58:07.641Z,73.20
2018-05-23T05:21:51.989Z,72.60
2018-05-23T05:23:52.961Z,72.20
2018-05-23T05:25:53.955Z,72.00
2018-05-23T05:27:54.979Z,71.80
2018-05-23T05:29:55.954Z,72.10
2018-05-23T05:31:56.975Z,72.00
2018-05-23T05:33:57.974Z,72.00
2018-05-23T05:35:58.963Z,71.30
2018-05-23T05:37:59.946Z,71.40
2018-05-23T05:40:00.995Z,71.30
2018-05-23T05:42:01.979Z,71.00
2018-05-23T05:44:02.983Z,70.30
2018-05-23T05:46:03.984Z,70.80
2018-05-23T05:48:04.985Z,70.90
2018-05-23T05:50:05.978Z,70.10
2018-05-23T05:52:07.670Z,70.30
2018-05-23T05:54:08.674Z,70.30
2018-05-23T05:56:09.647Z,69.90
2018-05-23T05:58:10.786Z,69.20
2018-05-23T06:00:11.763Z,69.10
2018-05-23T06:02:12.763Z,69.10
2018-05-23T06:04:13.830Z,68.80
2018-05-23T06:06:14.836Z,68.40
2018-05-23T06:08:15.808Z,67.90
2018-05-23T06:10:16.921Z,67.90
2018-05-23T06:12:18.271Z,67.20
2018-05-23T06:14:19.274Z,67.20
2018-05-23T06:16:20.263Z,67.00
2018-05-23T06:18:21.268Z,66.70
2018-05-23T06:20:29.544Z,66.60
2018-05-23T06:22:30.558Z,66.60
2018-05-23T06:24:35.555Z,66.70
2018-05-23T06:26:36.554Z,66.30
2018-05-23T06:28:37.607Z,65.50
2018-05-23T06:30:38.959Z,64.70
2018-05-23T06:32:40.322Z,63.90
2018-05-23T06:34:41.301Z,63.90
2018-05-23T06:36:42.841Z,62.90
2018-05-23T06:38:43.816Z,63.30
2018-05-23T06:40:45.230Z,63.10
2018-05-23T06:42:46.434Z,63.20
2018-05-23T06:44:47.427Z,63.20
2018-05-23T06:46:49.166Z,63.10
2018-05-23T06:48:50.174Z,63.10
2018-05-23T06:50:51.134Z,62.90
2018-05-23T06:52:52.130Z,62.10
2018-05-23T06:54:53.104Z,62.80
2018-05-23T06:56:54.106Z,62.40
2018-05-23T06:58:55.074Z,61.10
2018-05-23T07:00:56.149Z,61.50
2018-05-23T07:02:57.118Z,61.20
2018-05-23T07:04:58.109Z,61.60
2018-05-23T07:06:59.458Z,61.90
2018-05-23T07:09:00.430Z,61.90
2018-05-23T07:11:01.439Z,60.70
2018-05-23T07:13:02.908Z,60.10
2018-05-23T07:15:04.131Z,60.10
2018-05-23T07:17:05.147Z,60.60
2018-05-23T07:19:06.423Z,60.00
2018-05-23T07:21:07.407Z,57.90
2018-05-23T07:23:08.774Z,58.90
2018-05-23T07:25:09.754Z,58.90
2018-05-23T07:27:10.747Z,57.90
2018-05-23T07:29:11.743Z,58.30
2018-05-23T07:31:12.706Z,58.40
2018-05-23T07:33:14.046Z,57.20
2018-05-23T07:35:15.438Z,58.00
2018-05-23T07:37:16.442Z,58.00
2018-05-23T07:39:17.414Z,57.70
2018-05-23T07:41:18.509Z,56.30
2018-05-23T07:43:19.495Z,56.60
2018-05-23T07:45:20.485Z,56.30
2018-05-23T07:47:21.455Z,56.30
2018-05-23T07:49:22.442Z,56.40
2018-05-23T07:51:23.852Z,55.70
2018-05-23T07:53:24.852Z,55.90
2018-05-23T07:55:27.239Z,54.00
2018-05-23T07:57:28.266Z,54.00
2018-05-23T07:59:29.263Z,53.80
2018-05-23T08:01:30.262Z,54.20
2018-05-23T08:03:31.246Z,55.30
2018-05-23T08:05:32.239Z,55.10
2018-05-23T08:07:33.330Z,54.60
2018-05-23T08:09:34.315Z,54.10
2018-05-23T08:11:35.305Z,54.60
2018-05-23T08:13:36.306Z,54.60
2018-05-23T08:15:37.287Z,54.30
2018-05-23T08:17:45.286Z,52.20
2018-05-23T08:19:46.562Z,53.90
2018-05-23T08:21:47.903Z,52.90
2018-05-23T08:23:48.878Z,52.90
2018-05-23T08:25:49.903Z,52.40
2018-05-23T08:27:50.885Z,52.00
2018-05-23T08:29:51.903Z,52.20
2018-05-23T08:31:52.896Z,51.60
2018-05-23T08:33:54.262Z,51.50
2018-05-23T08:35:55.262Z,51.50
2018-05-23T08:37:56.606Z,50.80
2018-05-23T08:39:57.989Z,51.50
2018-05-23T08:41:58.978Z,51.50
2018-05-23T08:44:00.010Z,51.00
2018-05-23T08:46:01.050Z,50.50
2018-05-23T08:48:02.029Z,50.00
2018-05-23T08:50:03.065Z,50.30
2018-05-23T08:52:04.061Z,50.40
2018-05-23T08:54:05.420Z,50.60
2018-05-23T08:56:06.790Z,49.90
2018-05-23T08:58:07.761Z,49.90
2018-05-23T09:00:08.727Z,49.00
2018-05-23T09:02:10.081Z,48.50
2018-05-23T09:04:11.105Z,48.50
2018-05-23T09:06:12.466Z,47.90
2018-05-23T09:08:13.454Z,47.90
2018-05-23T09:10:14.451Z,48.00
2018-05-23T09:12:15.483Z,45.70
2018-05-23T09:14:16.398Z,46.50
2018-05-23T09:16:17.758Z,46.50
2018-05-23T09:18:18.756Z,46.50
2018-05-23T09:20:19.761Z,45.70
2018-05-23T09:22:21.066Z,46.60
2018-05-23T09:24:22.042Z,45.50
2018-05-23T09:26:23.023Z,44.90
2018-05-23T09:28:24.010Z,45.00
2018-05-23T09:30:24.999Z,44.60
2018-05-23T09:32:25.982Z,44.70
2018-05-23T09:34:26.990Z,43.40
2018-05-23T09:36:28.043Z,44.00
2018-05-23T09:38:29.027Z,43.00
2018-05-23T09:40:30.582Z,42.70
2018-05-23T09:42:31.945Z,43.00
2018-05-23T09:44:32.925Z,43.00
2018-05-23T09:46:34.091Z,43.30
2018-05-23T09:48:35.475Z,43.20
2018-05-23T09:50:36.459Z,43.20
2018-05-23T09:52:37.471Z,43.10
2018-05-23T09:54:38.472Z,41.00
2018-05-23T09:56:39.465Z,42.50
2018-05-23T09:58:40.434Z,41.30
2018-05-23T10:00:41.416Z,41.10
2018-05-23T10:02:42.394Z,41.30
2018-05-23T10:04:43.384Z,40.30
2018-05-23T10:06:44.376Z,40.70
2018-05-23T10:08:45.338Z,40.30
2018-05-23T10:10:46.302Z,40.00
2018-05-23T10:12:47.667Z,40.00
2018-05-23T10:14:49.030Z,40.10
2018-05-23T10:16:50.001Z,40.10
2018-05-23T10:18:51.012Z,40.00
2018-05-23T10:20:52.351Z,40.00
2018-05-23T10:22:53.564Z,40.00
2018-05-23T10:24:54.955Z,40.20
2018-05-23T10:27:01.531Z,40.20
2018-05-23T10:29:02.531Z,39.80
2018-05-23T10:31:03.557Z,39.80
2018-05-23T10:33:04.536Z,39.70
2018-05-23T10:35:05.531Z,40.50
2018-05-23T10:37:06.529Z,41.30
2018-05-23T10:39:07.519Z,41.00
2018-05-23T10:41:08.474Z,41.10
2018-05-23T10:43:09.451Z,41.60
2018-05-23T10:45:10.795Z,40.50
2018-05-23T10:47:12.129Z,41.10
2018-05-23T10:49:13.480Z,40.10
2018-05-23T10:51:14.862Z,40.20
2018-05-23T10:53:15.875Z,40.20
2018-05-23T10:55:16.905Z,39.60
2018-05-23T10:57:18.343Z,39.50
2018-05-23T10:59:19.276Z,39.50
2018-05-23T11:01:20.639Z,38.80
2018-05-23T11:03:21.677Z,38.80
2018-05-23T11:05:22.805Z,39.50
2018-05-23T11:07:23.783Z,39.90
2018-05-23T11:09:25.717Z,39.70
2018-05-23T11:11:26.719Z,39.20
2018-05-23T11:13:28.075Z,39.40
2018-05-23T11:15:36.096Z,39.40
2018-05-23T11:17:37.148Z,39.40
2018-05-23T11:19:38.131Z,38.10
2018-05-23T11:21:39.751Z,38.40
2018-05-23T11:23:40.771Z,38.30
2018-05-23T11:25:41.778Z,37.00
2018-05-23T11:27:42.898Z,38.20
2018-05-23T11:29:44.247Z,37.00
2018-05-23T11:31:45.591Z,38.30
2018-05-23T11:33:46.645Z,38.30
2018-05-23T11:35:47.610Z,39.00
2018-05-23T11:37:48.577Z,38.20
2018-05-23T11:39:49.918Z,38.30
2018-05-23T11:41:51.262Z,38.00
2018-05-23T11:43:52.601Z,37.80
2018-05-23T11:45:53.585Z,37.80
2018-05-23T11:47:54.750Z,38.90
2018-05-23T11:49:55.720Z,38.50
2018-05-23T11:51:57.084Z,37.30
2018-05-23T11:53:58.079Z,37.30
2018-05-23T11:55:59.077Z,36.20
2018-05-23T11:58:00.050Z,36.90
2018-05-23T12:00:01.199Z,36.20
2018-05-23T12:02:02.571Z,37.20
2018-05-23T12:04:03.597Z,37.20
2018-05-23T12:06:04.597Z,37.50
2018-05-23T12:08:05.587Z,37.10
2018-05-23T12:10:06.586Z,36.40
2018-05-23T12:12:07.942Z,38.00
2018-05-23T12:14:09.286Z,38.10
2018-05-23T12:16:10.642Z,38.00
2018-05-23T12:18:11.646Z,38.00
2018-05-23T12:20:12.630Z,37.40
2018-05-23T12:22:13.608Z,36.40
2018-05-23T12:24:14.598Z,36.40
2018-05-23T12:26:15.570Z,35.70
2018-05-23T12:30:24.419Z,35.80
2018-05-23T12:32:25.390Z,37.40
2018-05-23T12:34:26.370Z,37.90
2018-05-23T12:36:27.362Z,37.30
2018-05-23T12:38:28.350Z,36.10
2018-05-23T12:40:29.331Z,37.40
2018-05-23T12:42:30.299Z,38.70
2018-05-23T12:44:31.274Z,38.00
2018-05-23T12:46:32.646Z,36.60
2018-05-23T12:48:33.630Z,36.60
2018-05-23T12:50:34.601Z,36.80
2018-05-23T12:52:35.593Z,37.30
2018-05-23T12:54:36.574Z,38.20
2018-05-23T12:56:37.583Z,37.50
2018-05-23T12:58:38.958Z,36.60
2018-05-23T13:00:39.974Z,36.50
2018-05-23T13:02:41.315Z,35.20
2018-05-23T13:04:42.686Z,34.90
2018-05-23T13:06:43.659Z,34.90
2018-05-23T13:08:44.658Z,35.00
2018-05-23T13:10:45.664Z,34.60
2018-05-23T13:12:47.076Z,34.10
2018-05-23T13:14:49.255Z,33.90
2018-05-23T13:16:50.230Z,33.90
2018-05-23T13:18:52.066Z,34.80
2018-05-23T13:20:53.071Z,35.40
2018-05-23T13:22:54.236Z,35.10
2018-05-23T13:24:55.611Z,34.40
2018-05-23T13:26:56.609Z,34.40
2018-05-23T13:28:57.999Z,34.50
2018-05-23T13:30:59.474Z,34.10
2018-05-23T13:33:00.814Z,34.10
2018-05-23T13:35:01.790Z,33.70
2018-05-23T13:37:02.762Z,34.10
2018-05-23T13:39:04.622Z,33.10
2018-05-23T13:41:06.173Z,31.90
2018-05-23T13:43:07.187Z,32.90
2018-05-23T13:45:08.222Z,31.90
2018-05-23T13:47:09.228Z,35.20
2018-05-23T13:49:10.645Z,34.50
2018-05-23T13:51:11.671Z,34.60
2018-05-23T13:53:12.650Z,34.00
2018-05-23T13:55:13.681Z,33.80
2018-05-23T13:57:14.753Z,34.50
2018-05-23T13:59:15.753Z,34.10
2018-05-23T14:01:17.123Z,31.90
2018-05-23T14:03:18.150Z,31.90
2018-05-23T14:05:19.160Z,31.50
2018-05-23T14:07:20.543Z,29.90
2018-05-23T14:09:21.546Z,29.90
2018-05-23T14:11:22.904Z,30.30
2018-05-23T14:13:30.941Z,30.30
2018-05-23T14:15:31.927Z,29.80
2018-05-23T14:17:32.921Z,30.10
2018-05-23T14:19:33.901Z,31.00
2018-05-23T14:21:35.662Z,31.70
2018-05-23T14:23:36.646Z,31.70
2018-05-23T14:25:37.617Z,33.90
2018-05-23T14:27:38.995Z,33.60
2018-05-23T14:29:40.002Z,33.60
2018-05-23T14:31:41.338Z,33.30
2018-05-23T14:33:43.165Z,34.50
2018-05-23T14:35:44.244Z,34.50
2018-05-23T14:37:45.217Z,34.30
2018-05-23T14:39:46.235Z,34.40
2018-05-23T14:41:47.243Z,35.00
2018-05-23T14:43:48.267Z,35.50
2018-05-23T14:45:49.222Z,35.30
2018-05-23T14:47:50.366Z,36.00
2018-05-23T14:49:51.432Z,36.10
2018-05-23T14:51:52.406Z,37.40
2018-05-23T14:53:53.770Z,39.50
2018-05-23T14:55:54.735Z,39.50
2018-05-23T14:57:57.031Z,39.20
2018-05-23T14:59:58.022Z,39.60
2018-05-23T15:01:59.363Z,40.60
2018-05-23T15:04:00.639Z,40.60
2018-05-23T15:06:01.620Z,40.30
2018-05-23T15:08:02.981Z,40.80
2018-05-23T15:10:04.279Z,40.80
2018-05-23T15:12:05.294Z,41.20
2018-05-23T15:14:06.282Z,41.60
2018-05-23T15:16:07.261Z,42.50
2018-05-23T15:18:08.254Z,42.10
2018-05-23T15:20:09.475Z,42.00
2018-05-23T15:22:10.714Z,42.10
2018-05-23T15:24:12.086Z,42.30
2018-05-23T15:26:13.104Z,42.30
2018-05-23T15:28:14.441Z,43.40
2018-05-23T15:30:15.784Z,43.30
2018-05-23T15:32:17.146Z,43.70
2018-05-23T15:34:18.505Z,43.30
2018-05-23T15:36:19.506Z,43.30
2018-05-23T15:38:20.862Z,43.50
2018-05-23T15:40:22.106Z,43.50
2018-05-23T15:42:23.087Z,43.50
2018-05-23T15:44:24.076Z,43.80
2018-05-23T15:46:25.087Z,44.00
2018-05-23T15:48:26.438Z,44.40
2018-05-23T15:50:27.798Z,44.30
2018-05-23T15:52:28.817Z,44.30
2018-05-23T15:54:30.169Z,44.60
2018-05-23T15:56:31.509Z,44.30
2018-05-23T15:58:32.887Z,44.00
2018-05-23T16:00:41.326Z,44.00
2018-05-23T16:02:42.311Z,44.10
2018-05-23T16:04:43.285Z,44.00
2018-05-23T16:06:44.543Z,44.20
2018-05-23T16:08:45.525Z,44.30
2018-05-23T16:10:46.507Z,44.50
2018-05-23T16:12:47.535Z,44.50
2018-05-23T16:14:48.576Z,44.60
2018-05-23T16:16:49.543Z,44.90
2018-05-23T16:18:50.916Z,44.70
2018-05-23T16:20:58.818Z,44.70
2018-05-23T16:22:59.789Z,44.40
2018-05-23T16:25:00.889Z,44.40
2018-05-23T16:27:01.854Z,44.10
2018-05-23T16:29:02.842Z,43.90
2018-05-23T16:31:03.873Z,43.90
2018-05-23T16:33:05.268Z,43.60
2018-05-23T16:35:06.254Z,43.60
2018-05-23T16:37:07.692Z,44.10
2018-05-23T16:39:09.265Z,43.70
2018-05-23T16:41:10.241Z,43.70
2018-05-23T16:43:11.227Z,43.80
2018-05-23T16:45:12.214Z,43.80
2018-05-23T16:47:13.222Z,43.70
2018-05-23T16:49:14.268Z,43.70
2018-05-23T16:51:15.570Z,43.90
2018-05-23T16:53:16.563Z,43.90
2018-05-23T16:55:17.543Z,43.80
2018-05-23T16:57:18.711Z,43.60
2018-05-23T16:59:19.686Z,43.50
2018-05-23T17:01:20.666Z,43.50
2018-05-23T17:03:21.928Z,43.70
2018-05-23T17:05:22.909Z,43.80
2018-05-23T17:07:24.255Z,42.70
2018-05-23T17:09:25.631Z,43.00
2018-05-23T17:11:26.634Z,43.00
2018-05-23T17:13:28.026Z,43.40
2018-05-23T17:15:29.053Z,43.40
2018-05-23T17:17:30.029Z,42.80
2018-05-23T17:19:30.989Z,43.00
2018-05-23T17:21:32.186Z,43.00
2018-05-23T17:23:33.138Z,43.10
2018-05-23T17:25:34.122Z,42.80
2018-05-23T17:27:35.155Z,42.40
2018-05-23T17:29:36.134Z,42.00
2018-05-23T17:31:37.126Z,41.30
2018-05-23T17:33:38.104Z,41.30
2018-05-23T17:35:39.106Z,41.10
2018-05-23T17:37:40.100Z,40.90
2018-05-23T17:39:41.437Z,40.80
2018-05-23T17:41:42.801Z,40.40
2018-05-23T17:43:43.766Z,40.40
2018-05-23T17:45:45.718Z,40.70
2018-05-23T17:47:46.667Z,40.40
2018-05-23T17:49:47.647Z,40.40
2018-05-23T17:51:49.002Z,40.40
2018-05-23T17:53:50.290Z,40.40
2018-05-23T17:55:51.294Z,40.50
2018-05-23T17:57:52.261Z,40.00
2018-05-23T17:59:53.359Z,40.20
2018-05-23T18:01:54.376Z,39.90
2018-05-23T18:03:55.736Z,40.00
2018-05-23T18:05:56.854Z,40.00
2018-05-23T18:07:57.791Z,40.10
2018-05-23T18:09:59.134Z,40.50
2018-05-23T18:12:00.518Z,40.90
2018-05-23T18:14:01.518Z,40.80
2018-05-23T18:16:02.860Z,40.80
2018-05-23T18:18:04.586Z,40.90
2018-05-23T18:20:05.561Z,40.90
2018-05-23T18:22:06.542Z,41.10
2018-05-23T18:24:07.522Z,41.40
2018-05-23T18:26:08.866Z,40.80
2018-05-23T18:28:09.880Z,40.80
2018-05-23T18:30:10.871Z,40.90
2018-05-23T18:32:11.851Z,40.90
2018-05-23T18:34:12.830Z,40.90
2018-05-23T18:36:13.826Z,40.60
2018-05-23T18:38:15.167Z,40.90
2018-05-23T18:40:16.159Z,40.90
2018-05-23T18:42:17.164Z,40.80
2018-05-23T18:44:18.177Z,41.00
2018-05-23T18:46:19.542Z,41.30
2018-05-23T18:48:20.848Z,41.30
2018-05-23T18:50:21.873Z,41.30
2018-05-23T18:52:22.855Z,41.30
2018-05-23T18:54:25.743Z,41.40
2018-05-23T18:56:26.689Z,41.60
2018-05-23T18:58:27.673Z,41.50
2018-05-23T19:00:28.698Z,41.50
2018-05-23T19:02:29.706Z,41.40
2018-05-23T19:04:30.730Z,41.40
2018-05-23T19:06:31.786Z,41.30
2018-05-23T19:08:32.766Z,41.40
2018-05-23T19:10:33.763Z,41.40
2018-05-23T19:12:34.771Z,41.50
2018-05-23T19:14:35.743Z,41.70
2018-05-23T19:16:36.805Z,41.60
2018-05-23T19:18:38.178Z,41.80
2018-05-23T19:20:39.169Z,41.80
2018-05-23T19:22:40.441Z,41.80
2018-05-23T19:24:41.454Z,42.10
2018-05-23T19:26:42.404Z,41.80
2018-05-23T19:28:43.594Z,42.40
2018-05-23T19:30:44.575Z,42.10
2018-05-23T19:32:45.942Z,42.70
2018-05-23T19:34:46.921Z,42.70
2018-05-23T19:36:48.095Z,42.80
2018-05-23T19:38:49.484Z,43.70
2018-05-23T19:40:50.455Z,43.70
2018-05-23T19:42:51.427Z,43.50
2018-05-23T19:44:52.397Z,44.10
2018-05-23T19:46:53.371Z,44.10
2018-05-23T19:48:54.842Z,44.20
2018-05-23T19:50:55.829Z,44.20
2018-05-23T19:52:56.888Z,44.70
2018-05-23T19:54:57.781Z,44.10
2018-05-23T19:56:58.798Z,44.50
2018-05-23T19:59:00.963Z,44.40
2018-05-23T20:01:01.971Z,44.40
2018-05-23T20:03:02.930Z,44.50
2018-05-23T20:05:04.048Z,44.40
2018-05-23T20:07:11.430Z,44.90
2018-05-23T20:09:12.382Z,44.70
2018-05-23T20:11:13.361Z,44.90
2018-05-23T20:13:14.302Z,45.10
2018-05-23T20:15:15.243Z,45.20
2018-05-23T20:17:16.559Z,45.30
2018-05-23T20:19:17.535Z,45.30
2018-05-23T20:21:18.673Z,45.60
2018-05-23T20:23:19.634Z,45.60
2018-05-23T20:25:20.595Z,45.70
2018-05-23T20:27:21.547Z,45.80
2018-05-23T20:29:22.570Z,46.00
2018-05-23T20:31:24.155Z,46.30
2018-05-23T20:33:25.467Z,46.50
2018-05-23T20:35:26.802Z,46.50
2018-05-23T20:37:27.736Z,46.50
2018-05-23T20:39:28.694Z,46.20
2018-05-23T20:41:30.034Z,46.40
2018-05-23T20:43:30.977Z,46.40
2018-05-23T20:45:32.294Z,46.60
2018-05-23T20:47:33.255Z,46.50
2018-05-23T20:49:34.611Z,46.90
2018-05-23T20:51:35.563Z,47.00
2018-05-23T20:53:36.530Z,46.90
2018-05-23T20:57:45.280Z,47.20
2018-05-23T20:59:46.237Z,47.60
2018-05-23T21:01:47.734Z,48.40
2018-05-23T21:03:48.706Z,48.40
2018-05-23T21:05:50.550Z,48.50
2018-05-23T21:07:51.510Z,48.50
2018-05-23T21:09:52.814Z,48.70
2018-05-23T21:11:54.297Z,48.70
2018-05-23T21:13:55.613Z,48.90
2018-05-23T21:15:56.571Z,48.90
2018-05-23T21:17:57.909Z,49.50
2018-05-23T21:19:59.223Z,49.70
2018-05-23T21:22:00.194Z,49.70
2018-05-23T21:24:01.519Z,49.50
2018-05-23T21:26:02.473Z,49.40
2018-05-23T21:28:03.462Z,49.90
2018-05-23T21:30:04.419Z,49.80
2018-05-23T21:32:05.374Z,50.00
2018-05-23T21:34:06.695Z,50.40
2018-05-23T21:36:07.634Z,50.40
2018-05-23T21:38:08.961Z,50.50
2018-05-23T21:40:09.902Z,50.50
2018-05-23T21:42:10.847Z,50.80
2018-05-23T21:44:12.177Z,51.40
2018-05-23T21:46:13.135Z,51.40
2018-05-23T21:48:14.446Z,52.20
2018-05-23T21:50:15.446Z,52.20
2018-05-23T21:52:16.394Z,52.40
2018-05-23T21:54:17.358Z,52.60
2018-05-23T21:56:18.415Z,52.70
2018-05-23T21:58:19.742Z,53.30
2018-05-23T22:00:20.684Z,53.30
2018-05-23T22:02:22.118Z,53.70
2018-05-23T22:04:23.245Z,53.60
2018-05-23T22:06:24.194Z,53.80
2018-05-23T22:08:25.162Z,54.10
2018-05-23T22:10:26.111Z,54.60
2018-05-23T22:12:27.143Z,54.60
2018-05-23T22:14:28.102Z,55.20
2018-05-23T22:16:29.053Z,55.20
2018-05-23T22:18:30.001Z,55.00
2018-05-23T22:20:30.969Z,55.10
2018-05-23T22:22:31.910Z,55.10
2018-05-23T22:24:32.856Z,55.10
2018-05-23T22:26:33.834Z,55.40
2018-05-23T22:28:34.778Z,56.10
2018-05-23T22:30:36.183Z,56.40
2018-05-23T22:32:37.082Z,56.40
2018-05-23T22:34:38.019Z,56.90
2018-05-23T22:36:38.954Z,57.40
2018-05-23T22:38:40.042Z,57.70
2018-05-23T22:40:41.039Z,58.20
2018-05-23T22:42:42.006Z,58.00
2018-05-23T22:44:42.954Z,58.10
2018-05-23T22:46:43.899Z,58.00
2018-05-23T22:48:45.214Z,59.10
2018-05-23T22:50:46.245Z,59.20
2018-05-23T22:52:47.193Z,59.50
2018-05-23T22:54:48.148Z,60.50
2018-05-23T22:56:49.487Z,60.70
2018-05-23T22:58:50.435Z,60.70
2018-05-23T23:00:51.752Z,60.30
2018-05-23T23:02:53.031Z,60.30
2018-05-23T23:04:54.806Z,60.40
2018-05-23T23:06:55.739Z,60.50
2018-05-23T23:08:56.690Z,61.00
2018-05-23T23:10:58.024Z,61.70
2018-05-23T23:12:58.892Z,62.40
